createdAt,value
2023-08-19T00:01:05.528Z,88.00
2023-08-19T00:03:35.710Z,87.73
2023-08-19T00:06:10.958Z,88.22
2023-08-19T00:08:37.934Z,88.60
2023-08-19T00:11:05.659Z,87.97
2023-08-19T00:13:32.557Z,88.25
2023-08-19T00:16:00.000Z,88.43
2023-08-19T00:18:26.804Z,88.24
2023-08-19T00:20:53.498Z,89.21
2023-08-19T00:23:24.862Z,89.39
2023-08-19T00:25:51.587Z,90.20
2023-08-19T00:28:18.259Z,90.42
2023-08-19T00:30:44.943Z,89.45
2023-08-19T00:33:11.698Z,89.72
2023-08-19T00:35:40.376Z,89.93
2023-08-19T00:38:07.260Z,90.00
2023-08-19T00:40:33.939Z,90.22
2023-08-19T00:43:00.662Z,90.67
2023-08-19T00:45:27.631Z,89.90
2023-08-19T00:47:54.594Z,90.08
2023-08-19T00:50:21.640Z,90.06
2023-08-19T00:52:48.478Z,90.85
2023-08-19T00:55:15.294Z,89.45
2023-08-19T00:57:43.923Z,90.25
2023-08-19T01:00:11.289Z,90.64
2023-08-19T01:02:38.135Z,90.62
2023-08-19T01:05:05.415Z,90.63
2023-08-19T01:07:50.339Z,90.65
2023-08-19T01:11:10.854Z,90.85
2023-08-19T01:13:59.992Z,90.87
2023-08-19T01:16:30.826Z,91.12
2023-08-19T01:18:58.981Z,91.50
2023-08-19T01:21:25.869Z,91.73
2023-08-19T01:23:59.329Z,92.00
2023-08-19T01:26:26.008Z,91.75
2023-08-19T01:28:52.664Z,91.98
2023-08-19T01:31:19.464Z,92.44
2023-08-19T01:33:46.226Z,92.23
2023-08-19T01:36:18.852Z,92.61
2023-08-19T01:38:52.833Z,92.72
2023-08-19T01:41:23.607Z,92.33
2023-08-19T01:43:50.566Z,92.36
2023-08-19T01:46:17.684Z,92.50
2023-08-19T01:48:44.393Z,93.21
2023-08-19T01:51:11.037Z,93.44
2023-08-19T01:53:37.689Z,93.79
2023-08-19T01:56:04.596Z,93.28
2023-08-19T01:58:31.221Z,93.48
2023-08-19T02:00:57.909Z,93.39
2023-08-19T02:03:24.549Z,93.42
2023-08-19T02:05:51.190Z,93.39
2023-08-19T02:08:17.785Z,94.26
2023-08-19T02:10:44.555Z,94.77
2023-08-19T02:13:11.358Z,93.85
2023-08-19T02:15:38.345Z,93.53
2023-08-19T02:18:05.630Z,93.23
2023-08-19T02:20:32.319Z,93.99
2023-08-19T02:23:01.756Z,94.51
2023-08-19T02:25:28.494Z,94.16
2023-08-19T02:27:55.173Z,93.45
2023-08-19T02:30:21.858Z,93.53
2023-08-19T02:32:48.537Z,93.53
2023-08-19T02:35:15.281Z,93.73
2023-08-19T02:37:42.358Z,93.90
2023-08-19T02:40:09.383Z,94.63
2023-08-19T02:42:36.094Z,93.86
2023-08-19T02:45:02.705Z,93.69
2023-08-19T02:47:29.524Z,93.43
2023-08-19T02:49:56.452Z,93.43
2023-08-19T02:52:23.109Z,93.60
2023-08-19T02:54:49.865Z,93.11
2023-08-19T02:57:16.480Z,92.73
2023-08-19T02:59:43.136Z,93.86
2023-08-19T03:02:09.792Z,94.11
2023-08-19T03:04:36.449Z,94.37
2023-08-19T03:07:03.216Z,94.26
2023-08-19T03:09:29.873Z,93.90
2023-08-19T03:11:56.545Z,94.17
2023-08-19T03:14:23.212Z,94.65
2023-08-19T03:16:51.385Z,95.59
2023-08-19T03:19:18.143Z,95.11
2023-08-19T03:21:44.757Z,95.63
2023-08-19T03:24:11.415Z,95.23
2023-08-19T03:26:38.040Z,94.95
2023-08-19T03:29:05.291Z,94.10
2023-08-19T03:31:32.130Z,94.07
2023-08-19T03:33:58.759Z,94.64
2023-08-19T03:36:25.524Z,94.93
2023-08-19T03:38:52.236Z,95.10
2023-08-19T03:41:18.834Z,95.62
2023-08-19T03:43:45.402Z,95.85
2023-08-19T03:46:12.074Z,96.10
2023-08-19T03:48:38.736Z,95.54
2023-08-19T03:51:05.374Z,95.97
2023-08-19T03:53:32.016Z,95.63
2023-08-19T03:55:58.626Z,95.04
2023-08-19T03:58:25.257Z,95.23
2023-08-19T04:00:52.033Z,94.92
2023-08-19T04:03:18.611Z,94.94
2023-08-19T04:05:45.208Z,95.04
2023-08-19T04:08:11.850Z,95.37
2023-08-19T04:10:38.666Z,95.53
2023-08-19T04:13:05.251Z,94.88
2023-08-19T04:15:33.215Z,94.36
2023-08-19T04:17:59.948Z,94.10
2023-08-19T04:20:26.723Z,93.91
2023-08-19T04:22:53.459Z,94.18
2023-08-19T04:25:20.128Z,94.00
2023-08-19T04:27:46.741Z,94.23
2023-08-19T04:30:14.265Z,94.54
2023-08-19T04:32:41.043Z,94.56
2023-08-19T04:35:08.794Z,94.49
2023-08-19T04:37:35.576Z,93.52
2023-08-19T04:40:02.236Z,93.90
2023-08-19T04:42:28.844Z,94.32
2023-08-19T04:44:55.509Z,94.01
2023-08-19T04:47:22.099Z,94.36
2023-08-19T04:49:48.729Z,95.77
2023-08-19T04:52:15.760Z,95.49
2023-08-19T04:54:42.375Z,94.50
2023-08-19T04:57:09.006Z,94.77
2023-08-19T04:59:35.811Z,94.17
2023-08-19T05:02:02.872Z,93.33
2023-08-19T05:04:29.559Z,94.46
2023-08-19T05:06:56.277Z,93.79
2023-08-19T05:09:22.982Z,94.24
2023-08-19T05:11:49.647Z,93.38
2023-08-19T05:14:16.330Z,92.62
2023-08-19T05:16:43.014Z,92.88
2023-08-19T05:19:18.019Z,92.53
2023-08-19T05:21:45.082Z,93.25
2023-08-19T05:24:12.506Z,92.70
2023-08-19T05:26:40.334Z,91.66
2023-08-19T05:29:07.189Z,91.17
2023-08-19T05:31:33.911Z,91.38
2023-08-19T05:34:00.596Z,91.76
2023-08-19T05:36:28.561Z,91.61
2023-08-19T05:38:55.423Z,92.14
2023-08-19T05:41:22.177Z,92.10
2023-08-19T05:43:49.074Z,91.79
2023-08-19T05:46:15.905Z,91.88
2023-08-19T05:48:42.625Z,91.11
2023-08-19T05:51:09.362Z,91.36
2023-08-19T05:53:36.056Z,91.03
2023-08-19T05:56:03.169Z,90.48
2023-08-19T05:58:29.821Z,89.97
2023-08-19T06:01:08.224Z,90.50
2023-08-19T06:03:35.142Z,89.60
2023-08-19T06:06:08.096Z,89.20
2023-08-19T06:08:35.642Z,89.15
2023-08-19T06:11:06.169Z,88.67
2023-08-19T06:13:33.422Z,88.08
2023-08-19T06:16:00.557Z,88.61
2023-08-19T06:18:27.542Z,87.80
2023-08-19T06:20:54.343Z,86.53
2023-08-19T06:23:21.221Z,85.31
2023-08-19T06:25:50.333Z,84.40
2023-08-19T06:28:17.971Z,83.91
2023-08-19T06:30:45.154Z,83.88
2023-08-19T06:33:12.388Z,82.69
2023-08-19T06:35:39.288Z,82.47
2023-08-19T06:38:16.033Z,81.04
2023-08-19T06:40:56.914Z,80.84
2023-08-19T06:43:26.576Z,81.35
2023-08-19T06:45:55.457Z,78.69
2023-08-19T06:48:24.497Z,79.32
2023-08-19T06:50:52.779Z,78.64
2023-08-19T06:53:20.582Z,78.49
2023-08-19T06:56:11.944Z,75.63
2023-08-19T06:58:43.159Z,74.62
2023-08-19T07:01:19.364Z,73.18
2023-08-19T07:03:46.679Z,73.18
2023-08-19T07:06:17.008Z,71.52
2023-08-19T07:08:45.073Z,71.69
2023-08-19T07:11:11.980Z,72.87
2023-08-19T07:13:38.854Z,73.25
2023-08-19T07:16:06.893Z,70.95
2023-08-19T07:18:41.862Z,68.88
2023-08-19T07:21:16.364Z,69.45
2023-08-19T07:23:46.552Z,68.03
2023-08-19T07:26:14.131Z,67.27
2023-08-19T07:28:41.143Z,68.11
2023-08-19T07:31:10.868Z,65.09
2023-08-19T07:33:37.480Z,62.87
2023-08-19T07:36:04.474Z,60.98
2023-08-19T07:38:31.184Z,59.55
2023-08-19T07:40:57.841Z,56.68
2023-08-19T07:43:24.629Z,54.79
2023-08-19T07:45:51.247Z,52.54
2023-08-19T07:48:17.954Z,51.16
2023-08-19T07:50:44.606Z,48.07
2023-08-19T07:53:11.259Z,46.78
2023-08-19T07:55:37.913Z,46.01
2023-08-19T07:58:04.756Z,44.37
2023-08-19T08:00:31.449Z,43.23
2023-08-19T08:02:58.120Z,42.84
2023-08-19T08:05:24.969Z,40.69
2023-08-19T08:07:51.666Z,41.94
2023-08-19T08:10:18.432Z,41.15
2023-08-19T08:12:45.112Z,42.42
2023-08-19T08:15:11.895Z,42.05
2023-08-19T08:17:38.548Z,42.59
2023-08-19T08:20:05.800Z,42.97
2023-08-19T08:22:34.060Z,43.85
2023-08-19T08:25:01.038Z,44.40
2023-08-19T08:27:27.726Z,44.01
2023-08-19T08:29:54.406Z,44.87
2023-08-19T08:32:21.082Z,46.88
2023-08-19T08:34:47.782Z,47.30
2023-08-19T08:37:14.820Z,47.82
2023-08-19T08:39:41.756Z,49.18
2023-08-19T08:42:10.173Z,49.94
2023-08-19T08:44:38.636Z,50.53
2023-08-19T08:47:05.680Z,50.72
2023-08-19T08:49:34.170Z,50.33
2023-08-19T08:52:02.083Z,51.62
2023-08-19T08:54:31.124Z,52.67
2023-08-19T08:56:57.872Z,50.99
2023-08-19T08:59:24.576Z,51.32
2023-08-19T09:01:51.749Z,50.95
2023-08-19T09:04:20.879Z,51.67
2023-08-19T09:06:50.497Z,52.08
2023-08-19T09:09:17.884Z,51.08
2023-08-19T09:11:49.850Z,50.48
2023-08-19T09:14:32.030Z,49.25
2023-08-19T09:16:58.833Z,50.44
2023-08-19T09:19:25.540Z,49.40
2023-08-19T09:21:52.204Z,53.09
2023-08-19T09:24:18.881Z,51.92
2023-08-19T09:26:46.274Z,53.38
2023-08-19T09:29:13.107Z,53.26
2023-08-19T09:31:40.959Z,53.43
2023-08-19T09:34:08.181Z,53.88
2023-08-19T09:36:34.854Z,54.92
2023-08-19T09:39:01.603Z,55.48
2023-08-19T09:41:31.485Z,55.14
2023-08-19T09:43:58.520Z,52.96
2023-08-19T09:46:35.208Z,51.64
2023-08-19T09:49:02.056Z,52.57
2023-08-19T09:51:30.477Z,53.76
2023-08-19T09:53:57.285Z,53.63
2023-08-19T09:56:27.408Z,54.35
2023-08-19T09:59:00.052Z,51.69
2023-08-19T10:01:28.451Z,54.11
2023-08-19T10:03:55.296Z,54.37
2023-08-19T10:06:28.239Z,53.47
2023-08-19T10:09:04.589Z,53.27
2023-08-19T10:11:32.955Z,53.89
2023-08-19T10:14:03.548Z,53.95
2023-08-19T10:16:34.054Z,52.73
2023-08-19T10:19:03.032Z,52.86
2023-08-19T10:21:32.292Z,52.74
2023-08-19T10:23:59.920Z,52.06
2023-08-19T10:26:27.337Z,49.97
2023-08-19T10:29:09.021Z,50.84
2023-08-19T10:31:36.986Z,53.44
2023-08-19T10:34:26.221Z,55.37
2023-08-19T10:37:09.929Z,54.03
2023-08-19T10:39:37.007Z,53.35
2023-08-19T10:42:04.630Z,54.49
2023-08-19T10:44:34.908Z,54.71
2023-08-19T10:47:10.570Z,53.39
2023-08-19T10:49:37.944Z,53.50
2023-08-19T10:52:06.750Z,52.29
2023-08-19T10:54:36.931Z,52.17
2023-08-19T10:57:18.631Z,52.72
2023-08-19T10:59:47.636Z,52.30
2023-08-19T11:02:15.161Z,53.56
2023-08-19T11:04:44.018Z,53.49
2023-08-19T11:07:12.039Z,53.14
2023-08-19T11:09:45.549Z,52.47
2023-08-19T11:12:15.958Z,53.86
2023-08-19T11:14:47.997Z,52.93
2023-08-19T11:17:16.306Z,51.20
2023-08-19T11:19:43.581Z,53.08
2023-08-19T11:22:17.146Z,53.34
2023-08-19T11:24:44.375Z,52.46
2023-08-19T11:27:12.444Z,54.21
2023-08-19T11:29:39.869Z,53.80
2023-08-19T11:32:07.091Z,52.43
2023-08-19T11:34:33.928Z,52.83
2023-08-19T11:37:06.404Z,52.27
2023-08-19T11:39:34.267Z,53.29
2023-08-19T11:42:02.592Z,53.54
2023-08-19T11:44:29.439Z,53.20
2023-08-19T11:46:59.614Z,52.79
2023-08-19T11:49:30.741Z,51.56
2023-08-19T11:51:57.556Z,51.66
2023-08-19T11:54:25.002Z,51.99
2023-08-19T11:56:53.076Z,53.50
2023-08-19T11:59:28.799Z,53.34
2023-08-19T12:01:55.541Z,52.56
2023-08-19T12:04:23.538Z,51.08
2023-08-19T12:06:50.786Z,49.40
2023-08-19T12:09:32.587Z,49.02
2023-08-19T12:12:07.603Z,49.61
2023-08-19T12:14:34.295Z,48.91
2023-08-19T12:17:00.881Z,48.87
2023-08-19T12:19:27.567Z,50.01
2023-08-19T12:21:54.310Z,46.88
2023-08-19T12:24:20.944Z,46.40
2023-08-19T12:26:48.130Z,46.12
2023-08-19T12:29:14.805Z,46.39
2023-08-19T12:31:41.472Z,47.75
2023-08-19T12:34:08.203Z,48.99
2023-08-19T12:36:35.093Z,49.08
2023-08-19T12:39:01.718Z,50.60
2023-08-19T12:41:28.391Z,51.02
2023-08-19T12:43:55.115Z,51.05
2023-08-19T12:46:21.983Z,51.15
2023-08-19T12:48:48.804Z,50.13
2023-08-19T12:51:18.359Z,49.86
2023-08-19T12:53:44.999Z,49.71
2023-08-19T12:56:11.904Z,49.49
2023-08-19T12:58:38.692Z,48.67
2023-08-19T13:01:08.392Z,49.22
2023-08-19T13:03:35.927Z,50.87
2023-08-19T13:06:02.752Z,51.12
2023-08-19T13:08:29.393Z,52.21
2023-08-19T13:10:56.037Z,50.71
2023-08-19T13:13:22.747Z,50.36
2023-08-19T13:15:49.346Z,50.95
2023-08-19T13:18:20.104Z,50.32
2023-08-19T13:20:46.838Z,51.96
2023-08-19T13:23:13.488Z,52.26
2023-08-19T13:25:40.186Z,53.02
2023-08-19T13:28:07.103Z,54.06
2023-08-19T13:30:33.740Z,53.79
2023-08-19T13:33:00.465Z,53.02
2023-08-19T13:35:27.125Z,51.13
2023-08-19T13:37:54.210Z,49.74
2023-08-19T13:40:20.974Z,48.05
2023-08-19T13:42:47.674Z,47.91
2023-08-19T13:45:14.673Z,47.17
2023-08-19T13:47:41.332Z,46.71
2023-08-19T13:50:08.766Z,46.87
2023-08-19T13:52:39.052Z,46.10
2023-08-19T13:55:07.912Z,45.24
2023-08-19T13:57:35.597Z,46.30
2023-08-19T14:00:02.546Z,46.62
2023-08-19T14:02:29.204Z,45.95
2023-08-19T14:04:55.938Z,45.88
2023-08-19T14:07:22.652Z,46.52
2023-08-19T14:09:49.370Z,46.65
2023-08-19T14:12:17.742Z,47.48
2023-08-19T14:14:44.441Z,48.10
2023-08-19T14:17:11.685Z,46.85
2023-08-19T14:19:38.405Z,46.93
2023-08-19T14:22:05.090Z,47.16
2023-08-19T14:24:31.696Z,48.29
2023-08-19T14:26:58.383Z,48.58
2023-08-19T14:29:25.017Z,48.41
2023-08-19T14:31:51.646Z,48.16
2023-08-19T14:34:18.370Z,48.69
2023-08-19T14:36:44.966Z,48.67
2023-08-19T14:39:12.355Z,48.65
2023-08-19T14:41:39.393Z,46.98
2023-08-19T14:44:06.786Z,47.03
2023-08-19T14:46:36.545Z,47.66
2023-08-19T14:49:03.527Z,47.02
2023-08-19T14:51:30.227Z,47.20
2023-08-19T14:53:56.851Z,47.77
2023-08-19T14:56:23.821Z,47.94
2023-08-19T14:58:50.494Z,47.28
2023-08-19T15:01:18.835Z,47.81
2023-08-19T15:03:46.559Z,48.33
2023-08-19T15:06:13.709Z,48.57
2023-08-19T15:08:40.370Z,49.17
2023-08-19T15:11:07.080Z,48.18
2023-08-19T15:13:33.699Z,47.88
2023-08-19T15:16:00.343Z,47.77
2023-08-19T15:18:27.245Z,46.92
2023-08-19T15:20:55.110Z,47.40
2023-08-19T15:23:21.739Z,47.35
2023-08-19T15:25:48.454Z,46.95
2023-08-19T15:28:15.130Z,47.81
2023-08-19T15:30:41.792Z,47.58
2023-08-19T15:33:08.546Z,47.36
2023-08-19T15:35:35.276Z,47.63
2023-08-19T15:38:04.237Z,47.04
2023-08-19T15:40:30.970Z,48.23
2023-08-19T15:42:57.837Z,47.20
2023-08-19T15:45:24.508Z,46.51
2023-08-19T15:47:51.335Z,47.26
2023-08-19T15:50:18.063Z,47.97
2023-08-19T15:52:45.342Z,46.86
2023-08-19T15:55:12.024Z,47.06
2023-08-19T15:57:38.701Z,47.91
2023-08-19T16:00:06.588Z,48.20
2023-08-19T16:02:33.313Z,48.04
2023-08-19T16:04:59.952Z,47.32
2023-08-19T16:07:37.982Z,48.16
2023-08-19T16:10:08.710Z,48.62
2023-08-19T16:12:37.016Z,50.19
2023-08-19T16:15:05.154Z,49.81
2023-08-19T16:17:31.850Z,50.01
2023-08-19T16:19:58.676Z,49.52
2023-08-19T16:22:25.519Z,49.85
2023-08-19T16:24:52.196Z,50.00
2023-08-19T16:27:18.959Z,49.82
2023-08-19T16:29:45.681Z,50.34
2023-08-19T16:32:12.527Z,50.03
2023-08-19T16:34:39.408Z,50.79
2023-08-19T16:37:07.020Z,50.86
2023-08-19T16:39:33.697Z,50.38
2023-08-19T16:42:00.543Z,52.16
2023-08-19T16:44:27.242Z,52.03
2023-08-19T16:46:53.976Z,52.73
2023-08-19T16:49:20.680Z,51.79
2023-08-19T16:51:47.320Z,51.49
2023-08-19T16:54:13.949Z,51.48
2023-08-19T16:56:40.721Z,51.89
2023-08-19T16:59:07.396Z,52.01
2023-08-19T17:01:34.018Z,51.14
2023-08-19T17:04:00.680Z,51.42
2023-08-19T17:06:27.364Z,51.58
2023-08-19T17:08:54.054Z,52.54
2023-08-19T17:11:20.937Z,52.45
2023-08-19T17:13:47.607Z,53.13
2023-08-19T17:16:15.228Z,52.44
2023-08-19T17:18:42.031Z,51.56
2023-08-19T17:21:10.466Z,52.61
2023-08-19T17:23:37.260Z,53.60
2023-08-19T17:26:03.956Z,55.16
2023-08-19T17:28:30.604Z,55.31
2023-08-19T17:31:05.180Z,55.59
2023-08-19T17:33:32.899Z,56.43
2023-08-19T17:36:04.489Z,56.04
2023-08-19T17:38:32.206Z,55.98
2023-08-19T17:41:06.391Z,55.22
2023-08-19T17:43:33.140Z,55.33
2023-08-19T17:46:00.001Z,54.53
2023-08-19T17:48:27.293Z,54.20
2023-08-19T17:50:54.264Z,53.83
2023-08-19T17:53:21.292Z,54.09
2023-08-19T17:55:48.118Z,53.85
2023-08-19T17:58:14.779Z,54.41
2023-08-19T18:00:43.745Z,54.86
2023-08-19T18:03:11.364Z,55.26
2023-08-19T18:05:38.144Z,54.91
2023-08-19T18:08:05.166Z,54.85
2023-08-19T18:10:31.949Z,54.45
2023-08-19T18:12:58.660Z,54.58
2023-08-19T18:15:25.551Z,54.35
2023-08-19T18:17:53.021Z,53.70
2023-08-19T18:20:20.608Z,53.63
2023-08-19T18:22:48.510Z,53.46
2023-08-19T18:25:16.296Z,53.62
2023-08-19T18:27:47.398Z,53.04
2023-08-19T18:30:15.682Z,53.45
2023-08-19T18:32:44.969Z,53.50
2023-08-19T18:35:12.985Z,54.05
2023-08-19T18:37:43.851Z,54.47
2023-08-19T18:40:12.629Z,56.14
2023-08-19T18:42:40.394Z,56.11
2023-08-19T18:45:09.188Z,57.30
2023-08-19T18:48:05.325Z,58.81
2023-08-19T18:50:33.560Z,60.56
2023-08-19T18:53:00.722Z,61.28
2023-08-19T18:55:32.139Z,63.16
2023-08-19T18:57:59.095Z,63.41
2023-08-19T19:00:26.769Z,63.90
2023-08-19T19:02:54.261Z,63.91
2023-08-19T19:05:22.133Z,64.61
2023-08-19T19:07:49.969Z,65.58
2023-08-19T19:10:17.284Z,65.95
2023-08-19T19:12:44.973Z,67.08
2023-08-19T19:15:11.750Z,68.01
2023-08-19T19:17:58.419Z,67.83
2023-08-19T19:20:28.519Z,68.36
2023-08-19T19:22:56.705Z,68.80
2023-08-19T19:25:23.540Z,68.94
2023-08-19T19:27:50.392Z,68.37
2023-08-19T19:30:19.270Z,67.84
2023-08-19T19:32:47.890Z,67.46
2023-08-19T19:35:16.469Z,67.99
2023-08-19T19:37:44.826Z,68.32
2023-08-19T19:40:13.712Z,68.84
2023-08-19T19:42:40.633Z,68.74
2023-08-19T19:45:08.974Z,69.68
2023-08-19T19:47:37.188Z,70.15
2023-08-19T19:50:05.365Z,70.25
2023-08-19T19:52:32.236Z,69.95
2023-08-19T19:54:59.047Z,69.89
2023-08-19T19:57:25.745Z,70.23
2023-08-19T19:59:52.668Z,70.64
2023-08-19T20:02:19.374Z,70.29
2023-08-19T20:04:46.013Z,70.68
2023-08-19T20:07:12.670Z,70.61
2023-08-19T20:09:39.285Z,70.68
2023-08-19T20:12:06.227Z,70.73
2023-08-19T20:14:32.936Z,71.06
2023-08-19T20:16:59.544Z,71.20
2023-08-19T20:19:26.830Z,71.40
2023-08-19T20:21:53.533Z,71.84
2023-08-19T20:24:20.270Z,72.40
2023-08-19T20:26:47.219Z,73.52
2023-08-19T20:29:13.830Z,73.55
2023-08-19T20:31:40.535Z,73.88
2023-08-19T20:34:07.134Z,74.01
2023-08-19T20:36:34.158Z,74.65
2023-08-19T20:39:01.723Z,74.72
2023-08-19T20:41:28.689Z,75.31
2023-08-19T20:44:27.886Z,75.68
2023-08-19T20:46:54.524Z,75.31
2023-08-19T20:49:21.172Z,75.68
2023-08-19T20:51:47.965Z,75.64
2023-08-19T20:54:14.580Z,75.83
2023-08-19T20:56:42.380Z,75.97
2023-08-19T20:59:11.711Z,74.93
2023-08-19T21:01:38.921Z,75.97
2023-08-19T21:04:05.759Z,76.21
2023-08-19T21:06:32.903Z,76.39
2023-08-19T21:08:59.573Z,76.49
2023-08-19T21:11:26.173Z,77.17
2023-08-19T21:13:52.843Z,77.15
2023-08-19T21:16:19.548Z,77.13
2023-08-19T21:18:46.230Z,76.94
2023-08-19T21:21:12.940Z,76.47
2023-08-19T21:23:39.647Z,76.77
2023-08-19T21:26:06.352Z,76.73
2023-08-19T21:28:34.286Z,76.49
2023-08-19T21:31:01.282Z,76.62
2023-08-19T21:33:28.853Z,77.54
2023-08-19T21:35:55.797Z,77.85
2023-08-19T21:38:22.697Z,77.90
2023-08-19T21:40:49.531Z,78.07
2023-08-19T21:43:16.306Z,78.22
2023-08-19T21:45:43.099Z,78.07
2023-08-19T21:48:13.856Z,78.09
2023-08-19T21:50:40.754Z,78.54
2023-08-19T21:53:08.539Z,79.04
2023-08-19T21:55:36.011Z,78.83
2023-08-19T21:58:03.922Z,79.16
2023-08-19T22:00:33.062Z,79.03
2023-08-19T22:03:02.849Z,79.31
2023-08-19T22:05:31.098Z,78.94
2023-08-19T22:07:58.294Z,79.08
2023-08-19T22:10:25.027Z,78.88
2023-08-19T22:12:51.670Z,79.28
2023-08-19T22:15:18.340Z,79.87
2023-08-19T22:17:45.046Z,79.71
2023-08-19T22:20:12.545Z,79.73
2023-08-19T22:22:40.206Z,79.50
2023-08-19T22:25:08.393Z,79.39
2023-08-19T22:27:36.502Z,79.88
2023-08-19T22:30:05.127Z,80.10
2023-08-19T22:32:32.236Z,80.77
2023-08-19T22:34:59.170Z,80.79
2023-08-19T22:37:25.907Z,80.79
2023-08-19T22:39:52.608Z,80.93
2023-08-19T22:42:20.133Z,81.11
2023-08-19T22:44:46.812Z,81.12
2023-08-19T22:47:13.513Z,81.34
2023-08-19T22:49:40.188Z,81.26
2023-08-19T22:52:08.642Z,81.47
2023-08-19T22:54:36.266Z,81.72
2023-08-19T22:57:04.058Z,81.54
2023-08-19T22:59:31.419Z,81.70
2023-08-19T23:01:58.783Z,81.80
2023-08-19T23:04:25.728Z,81.80
2023-08-19T23:06:52.616Z,82.08
2023-08-19T23:09:19.375Z,82.25
2023-08-19T23:11:46.108Z,81.90
2023-08-19T23:14:12.911Z,81.86
2023-08-19T23:16:39.686Z,82.03
2023-08-19T23:19:06.495Z,81.31
2023-08-19T23:21:44.080Z,81.82
2023-08-19T23:24:12.966Z,81.99
2023-08-19T23:26:39.748Z,81.79
2023-08-19T23:29:06.481Z,82.05
2023-08-19T23:31:33.251Z,80.96
2023-08-19T23:34:00.030Z,81.31
2023-08-19T23:36:26.858Z,81.61
2023-08-19T23:38:53.674Z,81.91
2023-08-19T23:41:20.323Z,82.73
2023-08-19T23:43:47.050Z,83.26
2023-08-19T23:46:15.965Z,82.98
2023-08-19T23:48:42.960Z,83.14
2023-08-19T23:51:14.961Z,83.79
2023-08-19T23:53:43.188Z,83.52
2023-08-19T23:56:10.367Z,83.39
2023-08-19T23:58:37.444Z,83.71
